Time;durP1;ratioP1;P1;durP2;ratioP2;P2;SDS_P1;SDS_P2;PMS_P1;PMS_P2;Temp;Humidity;BMP_temperature;BMP_pressure;BME280_temperature;BME280_humidity;BME280_pressure;Samples;Min_cycle;Max_cycle;Signal;HPM_P1;HPM_P2
2022/04/21 00:01:39;;;;;;;;;5.75;5.00;;;;;;;;5060323;28;45338;-67
2022/04/21 00:04:05;;;;;;;;;6.50;5.50;;;;;;;;5060103;28;45959;-69
2022/04/21 00:06:30;;;;;;;;;4.00;3.50;;;;;;;;5058996;28;45559;-66
2022/04/21 00:08:56;;;;;;;;;5.25;4.75;;;;;;;;5058834;28;45436;-66
2022/04/21 00:11:21;;;;;;;;;4.75;4.75;;;;;;;;5060234;28;45925;-66
2022/04/21 00:13:47;;;;;;;;;5.75;5.75;;;;;;;;5059971;28;45253;-66
2022/04/21 00:16:12;;;;;;;;;6.00;6.00;;;;;;;;5059972;28;45266;-67
2022/04/21 00:18:38;;;;;;;;;6.00;5.25;;;;;;;;5059933;28;45549;-67
2022/04/21 00:21:04;;;;;;;;;5.25;5.00;;;;;;;;5060437;28;45496;-66
2022/04/21 00:23:30;;;;;;;;;5.00;4.00;;;;;;;;5060008;28;46136;-67
2022/04/21 00:25:58;;;;;;;;;6.00;5.00;;;;;;;;5059546;28;45401;-67
2022/04/21 00:28:24;;;;;;;;;6.00;5.00;;;;;;;;5059727;28;45372;-67
2022/04/21 00:30:49;;;;;;;;;4.75;4.25;;;;;;;;5059794;28;45404;-67
2022/04/21 00:33:15;;;;;;;;;6.50;6.25;;;;;;;;5059664;28;46149;-67
2022/04/21 00:35:40;;;;;;;;;8.25;6.25;;;;;;;;5059619;28;45405;-67
2022/04/21 00:38:05;;;;;;;;;6.00;6.00;;;;;;;;5059875;28;45326;-67
2022/04/21 00:40:32;;;;;;;;;10.25;7.00;;;;;;;;5060067;28;45489;-66
2022/04/21 00:42:58;;;;;;;;;6.75;6.75;;;;;;;;5059422;28;45628;-66
2022/04/21 00:45:24;;;;;;;;;6.00;6.00;;;;;;;;5059293;28;45359;-66
2022/04/21 00:47:50;;;;;;;;;9.50;7.50;;;;;;;;5059352;28;45221;-66
2022/04/21 00:50:22;;;;;;;;;8.75;8.75;;;;;;;;5059710;28;45395;-67
2022/04/21 00:52:48;;;;;;;;;10.25;9.00;;;;;;;;5059115;28;45433;-67
2022/04/21 00:55:14;;;;;;;;;12.00;10.75;;;;;;;;5059247;28;45241;-67
2022/04/21 00:57:41;;;;;;;;;11.50;11.00;;;;;;;;5059205;28;45208;-70
2022/04/21 01:00:07;;;;;;;;;13.75;12.50;;;;;;;;5059647;28;45327;-66
2022/04/21 01:02:52;;;;;;;;;14.25;12.50;;;;;;;;5058997;28;45275;-67
2022/04/21 01:05:32;;;;;;;;;14.25;11.75;;;;;;;;5058829;28;45466;-67
2022/04/21 01:07:59;;;;;;;;;11.75;11.25;;;;;;;;5059186;28;45532;-66
2022/04/21 01:10:25;;;;;;;;;13.25;9.25;;;;;;;;5059302;28;45211;-67
2022/04/21 01:12:51;;;;;;;;;12.50;11.25;;;;;;;;5058819;28;45342;-66
2022/04/21 01:15:16;;;;;;;;;9.50;8.00;;;;;;;;5058929;28;45560;-66
2022/04/21 01:17:41;;;;;;;;;12.50;9.25;;;;;;;;5059007;28;45472;-67
2022/04/21 01:20:08;;;;;;;;;12.00;10.75;;;;;;;;5059499;28;45438;-66
2022/04/21 01:22:34;;;;;;;;;13.25;10.00;;;;;;;;5059137;28;45429;-66
2022/04/21 01:24:59;;;;;;;;;11.50;10.00;;;;;;;;5058691;28;45425;-66
2022/04/21 01:27:26;;;;;;;;;11.75;9.75;;;;;;;;5058920;28;45391;-67
2022/04/21 01:29:52;;;;;;;;;10.75;10.25;;;;;;;;5058851;28;45170;-66
2022/04/21 01:32:17;;;;;;;;;7.25;7.25;;;;;;;;5058481;28;46118;-66
2022/04/21 01:34:42;;;;;;;;;9.25;7.75;;;;;;;;5058727;28;45480;-67
2022/04/21 01:42:35;;;;;;;;;7.00;6.50;;;;;;;;5058442;28;45472;-67
2022/04/21 01:45:01;;;;;;;;;7.00;7.00;;;;;;;;5058530;28;45496;-67
2022/04/21 01:47:26;;;;;;;;;10.75;7.00;;;;;;;;5058570;28;45221;-67
2022/04/21 01:49:51;;;;;;;;;9.00;7.50;;;;;;;;5058905;28;45546;-67
2022/04/21 01:52:16;;;;;;;;;7.00;7.00;;;;;;;;5057026;28;47643;-66
2022/04/21 01:54:44;;;;;;;;;6.50;6.50;;;;;;;;5058346;28;45243;-66
2022/04/21 01:57:09;;;;;;;;;6.25;6.00;;;;;;;;5058641;28;45314;-67
2022/04/21 01:59:35;;;;;;;;;9.75;8.00;;;;;;;;5057557;28;45198;-67
2022/04/21 02:02:00;;;;;;;;;9.25;6.75;;;;;;;;5058190;28;46489;-66
2022/04/21 02:04:25;;;;;;;;;10.00;7.50;;;;;;;;5058246;28;45517;-66
2022/04/21 02:06:51;;;;;;;;;7.00;6.25;;;;;;;;5058553;28;45314;-67
2022/04/21 02:09:17;;;;;;;;;8.75;7.50;;;;;;;;5057130;28;45294;-67
2022/04/21 02:11:42;;;;;;;;;9.75;7.00;;;;;;;;5058022;28;45512;-67
2022/04/21 02:14:07;;;;;;;;;5.75;5.75;;;;;;;;5058433;28;45330;-70
2022/04/21 02:16:33;;;;;;;;;8.00;7.00;;;;;;;;5058300;28;45414;-70
2022/04/21 02:18:58;;;;;;;;;8.75;7.00;;;;;;;;5058236;28;45312;-70
2022/04/21 02:21:23;;;;;;;;;7.50;7.00;;;;;;;;5056545;28;46282;-70
2022/04/21 02:23:49;;;;;;;;;10.75;8.75;;;;;;;;5056416;28;45210;-70
2022/04/21 02:26:14;;;;;;;;;10.00;9.25;;;;;;;;5056424;28;45559;-70
2022/04/21 02:28:39;;;;;;;;;9.50;8.25;;;;;;;;5058259;28;45524;-70
2022/04/21 02:31:05;;;;;;;;;10.75;9.75;;;;;;;;5057639;28;46516;-70
2022/04/21 02:33:31;;;;;;;;;11.50;11.25;;;;;;;;5057699;28;45540;-66
2022/04/21 02:35:56;;;;;;;;;10.75;10.00;;;;;;;;5057845;28;45231;-66
2022/04/21 02:38:22;;;;;;;;;9.75;9.75;;;;;;;;5057718;28;45492;-67
2022/04/21 02:40:47;;;;;;;;;13.75;12.25;;;;;;;;5057516;28;46003;-67
2022/04/21 02:43:12;;;;;;;;;13.00;12.00;;;;;;;;5057965;28;45449;-67
2022/04/21 02:45:39;;;;;;;;;12.00;10.50;;;;;;;;5057771;28;45322;-66
2022/04/21 02:48:05;;;;;;;;;13.00;11.50;;;;;;;;5057708;28;45276;-66
2022/04/21 02:50:31;;;;;;;;;11.75;11.25;;;;;;;;5057293;28;46199;-70
2022/04/21 02:52:57;;;;;;;;;12.50;11.00;;;;;;;;5057357;28;45453;-67
2022/04/21 02:58:06;;;;;;;;;13.75;12.50;;;;;;;;5057415;28;45381;-66
2022/04/21 03:00:31;;;;;;;;;14.50;11.75;;;;;;;;5057016;28;46071;-66
2022/04/21 03:02:57;;;;;;;;;15.75;11.00;;;;;;;;5057214;28;45419;-67
2022/04/21 03:05:22;;;;;;;;;11.75;10.25;;;;;;;;5057335;28;45588;-66
2022/04/21 03:07:47;;;;;;;;;14.50;13.25;;;;;;;;5057417;28;45358;-67
2022/04/21 03:10:13;;;;;;;;;14.00;11.75;;;;;;;;5057341;28;45441;-66
2022/04/21 03:12:39;;;;;;;;;10.00;8.25;;;;;;;;5057066;28;45178;-66
2022/04/21 03:15:04;;;;;;;;;9.50;9.00;;;;;;;;5057253;28;45196;-66
2022/04/21 03:17:30;;;;;;;;;12.75;11.75;;;;;;;;5057533;28;45303;-66
2022/04/21 03:19:55;;;;;;;;;13.50;11.00;;;;;;;;5056954;28;45554;-67
2022/04/21 03:25:06;;;;;;;;;13.00;12.50;;;;;;;;5057223;28;45490;-66
2022/04/21 03:27:31;;;;;;;;;14.00;12.25;;;;;;;;5057289;28;45223;-70
2022/04/21 03:29:57;;;;;;;;;12.25;10.25;;;;;;;;5056799;28;46083;-67
2022/04/21 03:32:22;;;;;;;;;10.50;9.75;;;;;;;;5057112;28;45239;-67
2022/04/21 03:34:48;;;;;;;;;11.75;10.75;;;;;;;;5056950;28;45592;-67
2022/04/21 03:37:14;;;;;;;;;11.75;11.50;;;;;;;;5057257;28;45314;-67
2022/04/21 03:39:40;;;;;;;;;11.75;10.00;;;;;;;;5055364;28;45475;-66
2022/04/21 03:42:06;;;;;;;;;12.00;10.00;;;;;;;;5055320;28;45529;-69
2022/04/21 03:44:32;;;;;;;;;14.50;13.50;;;;;;;;5056980;28;45307;-69
2022/04/21 03:46:58;;;;;;;;;12.00;11.50;;;;;;;;5056867;28;45500;-67
2022/04/21 03:49:24;;;;;;;;;64.50;52.00;;;;;;;;5056670;28;45570;-68
2022/04/21 03:51:49;;;;;;;;;30.00;28.00;;;;;;;;5056592;28;45519;-67
2022/04/21 03:54:15;;;;;;;;;31.75;30.00;;;;;;;;5057142;28;45966;-70
2022/04/21 03:56:40;;;;;;;;;20.00;18.50;;;;;;;;5056876;28;45446;-70
2022/04/21 03:59:05;;;;;;;;;12.25;11.00;;;;;;;;5056448;28;45311;-66
2022/04/21 04:01:31;;;;;;;;;12.50;11.75;;;;;;;;5055248;28;45544;-70
2022/04/21 04:03:56;;;;;;;;;16.25;14.25;;;;;;;;5056680;28;45302;-67
2022/04/21 04:11:52;;;;;;;;;16.50;14.25;;;;;;;;5056387;28;45219;-68
2022/04/21 04:14:18;;;;;;;;;11.25;10.25;;;;;;;;5056785;28;45506;-70
2022/04/21 04:16:44;;;;;;;;;8.00;7.75;;;;;;;;5056820;28;45481;-69
2022/04/21 04:19:10;;;;;;;;;6.25;6.25;;;;;;;;5056282;28;45626;-70
2022/04/21 04:21:36;;;;;;;;;9.00;8.50;;;;;;;;5056987;28;45368;-69
2022/04/21 04:24:01;;;;;;;;;5.00;4.75;;;;;;;;5059851;28;45493;-67
2022/04/21 04:26:27;;;;;;;;;5.67;4.67;;;;;;;;5060128;28;45539;-67
2022/04/21 04:28:52;;;;;;;;;7.25;6.50;;;;;;;;5059458;28;45594;-69
2022/04/21 04:31:18;;;;;;;;;10.00;8.00;;;;;;;;5059649;28;45443;-69
2022/04/21 04:33:43;;;;;;;;;11.00;10.00;;;;;;;;5059695;28;45465;-67
2022/04/21 04:36:13;;;;;;;;;13.75;13.50;;;;;;;;5059872;28;46031;-67
2022/04/21 04:38:39;;;;;;;;;14.00;12.50;;;;;;;;5059242;28;45524;-69
2022/04/21 04:43:48;;;;;;;;;13.50;10.75;;;;;;;;5059765;28;45266;-66
2022/04/21 04:48:57;;;;;;;;;14.25;13.75;;;;;;;;5059274;28;45777;-67
2022/04/21 04:51:22;;;;;;;;;15.25;12.75;;;;;;;;5059153;28;45456;-66
2022/04/21 04:53:48;;;;;;;;;21.75;20.50;;;;;;;;5059656;28;45441;-66
2022/04/21 04:56:14;;;;;;;;;14.00;13.00;;;;;;;;5059509;28;45407;-67
2022/04/21 04:58:39;;;;;;;;;13.00;11.75;;;;;;;;5059067;28;45511;-67
2022/04/21 05:01:05;;;;;;;;;13.25;11.50;;;;;;;;5058916;28;45496;-67
2022/04/21 05:03:30;;;;;;;;;15.75;14.25;;;;;;;;5057894;28;45420;-70
2022/04/21 05:05:56;;;;;;;;;18.25;17.50;;;;;;;;5059335;28;45491;-67
2022/04/21 05:08:21;;;;;;;;;16.75;15.75;;;;;;;;5059372;28;46390;-67
2022/04/21 05:10:46;;;;;;;;;17.00;15.75;;;;;;;;5059089;28;45507;-69
2022/04/21 05:13:12;;;;;;;;;21.50;15.50;;;;;;;;5059228;28;45282;-66
2022/04/21 05:15:37;;;;;;;;;15.25;14.50;;;;;;;;5057988;28;45236;-67
2022/04/21 05:18:02;;;;;;;;;15.75;14.00;;;;;;;;5057430;28;46500;-70
2022/04/21 05:20:28;;;;;;;;;14.50;13.50;;;;;;;;5058935;28;45472;-68
2022/04/21 05:23:00;;;;;;;;;17.75;14.50;;;;;;;;5059126;28;45334;-67
2022/04/21 05:25:30;;;;;;;;;17.50;15.25;;;;;;;;5058997;28;45294;-69
2022/04/21 05:27:55;;;;;;;;;14.75;12.00;;;;;;;;5058605;28;46090;-67
2022/04/21 05:33:04;;;;;;;;;11.25;10.25;;;;;;;;5057597;28;45533;-68
2022/04/21 05:35:30;;;;;;;;;21.50;20.25;;;;;;;;5058871;28;45536;-70
2022/04/21 05:37:55;;;;;;;;;13.00;11.25;;;;;;;;5058261;28;45960;-70
2022/04/21 05:40:21;;;;;;;;;11.50;11.00;;;;;;;;5059028;28;45242;-70
2022/04/21 05:42:49;;;;;;;;;12.25;11.75;;;;;;;;5058641;28;45212;-69
2022/04/21 05:45:15;;;;;;;;;14.25;12.75;;;;;;;;5058935;28;45414;-70
2022/04/21 05:47:40;;;;;;;;;13.50;12.75;;;;;;;;5058288;28;46091;-71
2022/04/21 05:50:06;;;;;;;;;13.50;11.75;;;;;;;;5057085;28;45341;-69
2022/04/21 05:52:32;;;;;;;;;11.75;10.25;;;;;;;;5058540;28;45447;-70
2022/04/21 05:54:58;;;;;;;;;14.25;11.75;;;;;;;;5058616;28;45512;-70
2022/04/21 05:57:23;;;;;;;;;12.75;11.00;;;;;;;;5058390;28;45486;-69
2022/04/21 05:59:48;;;;;;;;;11.25;11.25;;;;;;;;5058266;28;45570;-70
2022/04/21 06:02:14;;;;;;;;;12.75;11.50;;;;;;;;5058427;28;45398;-70
2022/04/21 06:04:39;;;;;;;;;11.50;11.00;;;;;;;;5058466;28;45472;-70
2022/04/21 06:07:04;;;;;;;;;11.50;10.50;;;;;;;;5058107;28;45903;-70
2022/04/21 06:09:30;;;;;;;;;12.50;11.00;;;;;;;;5058121;28;45319;-70
2022/04/21 06:11:55;;;;;;;;;9.50;8.25;;;;;;;;5058441;28;45458;-68
2022/04/21 06:14:20;;;;;;;;;13.25;12.75;;;;;;;;5058644;28;45370;-70
2022/04/21 06:16:46;;;;;;;;;10.00;10.00;;;;;;;;5058081;28;46209;-70
2022/04/21 06:19:11;;;;;;;;;10.00;8.50;;;;;;;;5057825;28;45346;-70
2022/04/21 06:21:36;;;;;;;;;10.25;9.50;;;;;;;;5057858;28;45282;-69
2022/04/21 06:24:02;;;;;;;;;9.00;9.00;;;;;;;;5056745;28;45578;-70
2022/04/21 06:26:27;;;;;;;;;13.00;10.50;;;;;;;;5057861;28;45434;-69
2022/04/21 06:28:57;;;;;;;;;12.00;11.25;;;;;;;;5057992;28;45465;-70
2022/04/21 06:31:22;;;;;;;;;11.00;10.00;;;;;;;;5057909;28;45310;-70
2022/04/21 06:33:47;;;;;;;;;11.00;10.75;;;;;;;;5057778;28;45423;-70
2022/04/21 06:36:13;;;;;;;;;10.00;8.50;;;;;;;;5057479;28;45968;-70
2022/04/21 06:38:38;;;;;;;;;9.25;8.25;;;;;;;;5057567;28;45413;-69
2022/04/21 06:41:04;;;;;;;;;10.00;10.00;;;;;;;;5057638;28;45366;-70
2022/04/21 06:48:57;;;;;;;;;5.00;5.00;;;;;;;;5057922;28;45876;-70
2022/04/21 06:51:24;;;;;;;;;5.33;5.00;;;;;;;;5057854;28;45512;-69
2022/04/21 06:53:49;;;;;;;;;6.75;5.25;;;;;;;;5057788;28;45390;-72
2022/04/21 06:56:15;;;;;;;;;11.25;10.75;;;;;;;;5057154;28;45994;-70
2022/04/21 06:58:40;;;;;;;;;6.25;6.00;;;;;;;;5057314;28;45424;-70
2022/04/21 07:01:06;;;;;;;;;5.25;5.25;;;;;;;;5057478;28;45488;-70
2022/04/21 07:03:32;;;;;;;;;10.75;9.75;;;;;;;;5057463;28;45416;-70
2022/04/21 07:05:59;;;;;;;;;6.00;6.00;;;;;;;;5057745;28;46209;-70
2022/04/21 07:08:24;;;;;;;;;11.25;11.25;;;;;;;;5057474;28;45542;-70
2022/04/21 07:10:50;;;;;;;;;6.67;6.67;;;;;;;;5057082;28;45425;-70
2022/04/21 07:13:15;;;;;;;;;7.00;7.00;;;;;;;;5056210;28;45346;-69
2022/04/21 07:15:41;;;;;;;;;7.00;7.00;;;;;;;;5057047;28;45481;-70
2022/04/21 07:18:06;;;;;;;;;10.00;9.50;;;;;;;;5056934;28;45472;-70
2022/04/21 07:20:32;;;;;;;;;13.50;12.25;;;;;;;;5057005;28;45417;-70
2022/04/21 07:22:57;;;;;;;;;9.75;7.50;;;;;;;;5057520;28;45563;-69
2022/04/21 07:25:23;;;;;;;;;9.33;6.67;;;;;;;;5056935;28;45307;-70
2022/04/21 07:27:49;;;;;;;;;8.00;8.00;;;;;;;;5055584;28;45326;-70
2022/04/21 07:30:14;;;;;;;;;7.75;6.00;;;;;;;;5056766;28;45536;-69
2022/04/21 07:32:39;;;;;;;;;21.75;19.00;;;;;;;;5056983;28;45438;-70
2022/04/21 07:35:05;;;;;;;;;15.25;14.00;;;;;;;;5056951;28;46159;-70
2022/04/21 07:37:32;;;;;;;;;12.00;10.25;;;;;;;;5056683;28;45387;-67
2022/04/21 07:39:58;;;;;;;;;13.50;12.75;;;;;;;;5057171;28;45276;-70
2022/04/21 07:42:23;;;;;;;;;13.50;11.25;;;;;;;;5056948;28;45488;-70
2022/04/21 07:44:48;;;;;;;;;13.00;12.00;;;;;;;;5056619;28;45465;-70
2022/04/21 07:47:14;;;;;;;;;14.00;10.25;;;;;;;;5056813;28;45225;-70
2022/04/21 07:49:45;;;;;;;;;12.25;12.25;;;;;;;;5056812;28;45491;-70
2022/04/21 07:55:16;;;;;;;;;12.00;11.00;;;;;;;;5056268;28;45496;-69
2022/04/21 07:57:42;;;;;;;;;13.25;12.50;;;;;;;;5058784;28;45231;-69
2022/04/21 08:00:08;;;;;;;;;14.25;13.50;;;;;;;;5058723;28;45416;-70
2022/04/21 08:02:34;;;;;;;;;17.75;15.00;;;;;;;;5060206;28;45232;-70
2022/04/21 08:04:59;;;;;;;;;18.25;17.25;;;;;;;;5059760;28;46080;-69
2022/04/21 08:07:24;;;;;;;;;24.75;23.00;;;;;;;;5059941;28;45272;-68
2022/04/21 08:09:50;;;;;;;;;19.00;16.75;;;;;;;;5059669;28;45295;-69
2022/04/21 08:12:15;;;;;;;;;12.75;12.00;;;;;;;;5059966;28;45539;-70
2022/04/21 08:14:40;;;;;;;;;16.25;14.25;;;;;;;;5058388;28;45354;-69
2022/04/21 08:17:06;;;;;;;;;14.75;13.00;;;;;;;;5059931;28;45330;-70
2022/04/21 08:19:32;;;;;;;;;22.25;17.75;;;;;;;;5060186;28;45629;-70
2022/04/21 08:21:57;;;;;;;;;14.00;13.50;;;;;;;;5060240;28;45374;-69
2022/04/21 08:32:37;;;;;;;;;19.00;16.00;;;;;;;;5059567;28;45169;-70
2022/04/21 08:35:03;;;;;;;;;14.50;14.00;;;;;;;;5059476;28;45573;-70
2022/04/21 08:37:28;;;;;;;;;13.00;12.25;;;;;;;;5057985;28;45373;-70
2022/04/21 08:39:55;;;;;;;;;13.75;13.25;;;;;;;;5059319;28;45476;-70
2022/04/21 08:42:21;;;;;;;;;14.50;13.50;;;;;;;;5059500;28;45255;-70
2022/04/21 08:44:48;;;;;;;;;19.00;18.75;;;;;;;;5057797;28;47228;-70
2022/04/21 08:47:17;;;;;;;;;15.00;15.00;;;;;;;;5059181;28;45300;-70
2022/04/21 08:49:44;;;;;;;;;21.25;18.00;;;;;;;;5059071;28;45475;-70
2022/04/21 08:52:11;;;;;;;;;14.00;13.75;;;;;;;;5059241;28;45573;-70
2022/04/21 08:54:37;;;;;;;;;14.50;13.75;;;;;;;;5058333;28;45445;-69
2022/04/21 08:57:02;;;;;;;;;12.25;12.00;;;;;;;;5057976;28;45493;-69
2022/04/21 08:59:27;;;;;;;;;13.50;13.00;;;;;;;;5059111;28;45327;-70
2022/04/21 09:01:53;;;;;;;;;12.75;12.00;;;;;;;;5059117;28;45524;-69
2022/04/21 09:04:18;;;;;;;;;24.00;20.25;;;;;;;;5058740;28;45325;-70
2022/04/21 09:06:43;;;;;;;;;17.25;16.25;;;;;;;;5058969;28;45430;-70
2022/04/21 09:09:21;;;;;;;;;19.50;18.00;;;;;;;;5057397;28;45338;-69
2022/04/21 09:11:49;;;;;;;;;19.25;18.00;;;;;;;;5059082;28;45602;-67
2022/04/21 09:14:16;;;;;;;;;26.00;23.50;;;;;;;;5058599;28;45437;-67
2022/04/21 09:16:41;;;;;;;;;20.25;17.75;;;;;;;;5057141;28;45418;-70
2022/04/21 09:19:06;;;;;;;;;26.50;24.50;;;;;;;;5058263;28;45445;-67
2022/04/21 09:21:36;;;;;;;;;20.75;19.50;;;;;;;;5058964;28;45507;-67
2022/04/21 09:24:17;;;;;;;;;19.50;15.75;;;;;;;;5058513;28;45338;-70
2022/04/21 09:26:44;;;;;;;;;15.00;13.50;;;;;;;;5058553;28;45492;-70
2022/04/21 09:29:13;;;;;;;;;14.75;13.75;;;;;;;;5058083;28;45557;-68
2022/04/21 09:31:40;;;;;;;;;20.25;19.00;;;;;;;;5056894;28;45277;-66
2022/04/21 09:34:05;;;;;;;;;13.25;13.00;;;;;;;;5058216;28;45471;-66
2022/04/21 09:36:31;;;;;;;;;25.25;24.75;;;;;;;;5058381;28;45373;-66
2022/04/21 09:39:03;;;;;;;;;11.25;10.25;;;;;;;;5058596;28;45693;-69
2022/04/21 09:41:29;;;;;;;;;23.75;18.75;;;;;;;;5058421;28;45535;-66
2022/04/21 09:44:04;;;;;;;;;16.50;16.00;;;;;;;;5057907;28;45579;-66
2022/04/21 09:46:34;;;;;;;;;32.00;31.25;;;;;;;;5057858;28;45404;-67
2022/04/21 09:48:59;;;;;;;;;12.25;11.25;;;;;;;;5058054;28;45298;-67
2022/04/21 09:51:25;;;;;;;;;7.25;6.75;;;;;;;;5058198;28;45251;-67
2022/04/21 09:53:57;;;;;;;;;12.00;11.50;;;;;;;;5057583;28;46404;-67
2022/04/21 09:56:36;;;;;;;;;13.00;13.00;;;;;;;;5057819;28;45227;-68
2022/04/21 09:59:03;;;;;;;;;7.25;6.75;;;;;;;;5057996;28;45280;-67
2022/04/21 10:01:29;;;;;;;;;13.00;10.00;;;;;;;;5056928;28;45430;-67
2022/04/21 10:03:55;;;;;;;;;10.25;8.75;;;;;;;;5057358;28;45378;-68
2022/04/21 10:06:21;;;;;;;;;14.50;13.00;;;;;;;;5057287;28;45405;-69
2022/04/21 10:08:48;;;;;;;;;8.50;7.00;;;;;;;;5057288;28;45303;-67
2022/04/21 10:11:14;;;;;;;;;9.50;9.25;;;;;;;;5057408;28;45432;-70
2022/04/21 10:13:40;;;;;;;;;8.50;7.50;;;;;;;;5057054;28;45430;-67
2022/04/21 10:16:07;;;;;;;;;14.00;12.50;;;;;;;;5057489;28;45375;-68
2022/04/21 10:18:33;;;;;;;;;6.50;6.50;;;;;;;;5057502;28;45366;-68
2022/04/21 10:20:58;;;;;;;;;14.25;12.75;;;;;;;;5056574;28;45374;-66
2022/04/21 10:23:27;;;;;;;;;10.75;10.75;;;;;;;;5056533;28;46545;-68
2022/04/21 10:26:02;;;;;;;;;10.25;8.50;;;;;;;;5057240;28;45307;-68
2022/04/21 10:28:34;;;;;;;;;7.00;6.67;;;;;;;;5057532;28;45158;-66
2022/04/21 10:31:19;;;;;;;;;14.00;13.50;;;;;;;;5057601;28;45354;-69
2022/04/21 10:34:03;;;;;;;;;9.50;8.50;;;;;;;;5057212;28;45970;-69
2022/04/21 10:36:33;;;;;;;;;7.00;7.00;;;;;;;;5057486;28;45450;-67
2022/04/21 10:39:16;;;;;;;;;13.50;12.00;;;;;;;;5057410;28;45288;-68
2022/04/21 10:41:41;;;;;;;;;12.00;12.00;;;;;;;;5057625;28;45401;-67
2022/04/21 10:44:17;;;;;;;;;12.00;11.00;;;;;;;;5057340;28;46135;-68
2022/04/21 10:46:42;;;;;;;;;11.33;9.00;;;;;;;;5057246;28;45468;-69
2022/04/21 10:49:09;;;;;;;;;9.00;6.00;;;;;;;;5056428;28;45456;-69
2022/04/21 10:57:29;;;;;;;;;6.00;6.00;;;;;;;;5057515;28;45488;-66
2022/04/21 10:59:58;;;;;;;;;7.00;6.00;;;;;;;;5057198;28;45516;-66
2022/04/21 11:02:36;;;;;;;;;7.00;6.67;;;;;;;;5057396;28;45572;-69
2022/04/21 11:05:22;;;;;;;;;8.25;8.25;;;;;;;;5056940;28;45456;-69
2022/04/21 11:07:51;;;;;;;;;6.00;6.00;;;;;;;;5055623;28;45421;-67
2022/04/21 11:10:26;;;;;;;;;9.00;9.00;;;;;;;;5056900;28;45358;-66
2022/04/21 11:12:52;;;;;;;;;8.67;8.00;;;;;;;;5057185;28;45516;-67
2022/04/21 11:15:39;;;;;;;;;6.67;6.67;;;;;;;;5056606;28;45228;-67
2022/04/21 11:18:11;;;;;;;;;15.25;14.75;;;;;;;;5056932;28;45162;-66
2022/04/21 11:20:44;;;;;;;;;18.75;16.75;;;;;;;;5057061;28;45290;-67
2022/04/21 11:23:10;;;;;;;;;6.33;6.33;;;;;;;;5057123;28;45501;-66
2022/04/21 11:25:36;;;;;;;;;11.67;9.00;;;;;;;;5056762;28;45388;-69
2022/04/21 11:28:02;;;;;;;;;9.67;8.67;;;;;;;;5056924;28;45302;-67
2022/04/21 11:30:31;;;;;;;;;14.25;13.25;;;;;;;;5056804;28;45291;-67
2022/04/21 11:32:56;;;;;;;;;12.75;10.25;;;;;;;;5059873;28;45532;-66
2022/04/21 11:35:22;;;;;;;;;13.50;12.50;;;;;;;;5060329;28;46186;-66
2022/04/21 11:37:49;;;;;;;;;15.75;13.00;;;;;;;;5060230;28;45342;-67
2022/04/21 11:40:18;;;;;;;;;7.00;6.67;;;;;;;;5060596;28;45227;-67
2022/04/21 11:42:43;;;;;;;;;10.00;7.33;;;;;;;;5060715;28;45242;-66
2022/04/21 11:45:08;;;;;;;;;12.00;11.25;;;;;;;;5059795;28;46230;-69
2022/04/21 11:47:34;;;;;;;;;8.00;7.00;;;;;;;;5060184;28;45425;-66
2022/04/21 11:49:59;;;;;;;;;7.50;6.25;;;;;;;;5059119;28;45399;-68
2022/04/21 11:52:25;;;;;;;;;5.67;5.67;;;;;;;;5059270;28;45539;-69
2022/04/21 11:55:00;;;;;;;;;7.67;7.67;;;;;;;;5059697;28;45568;-69
2022/04/21 11:57:39;;;;;;;;;7.67;7.67;;;;;;;;5058462;28;45473;-68
2022/04/21 12:00:04;;;;;;;;;6.67;6.00;;;;;;;;5059938;28;45465;-69
2022/04/21 12:07:58;;;;;;;;;7.75;7.00;;;;;;;;5059580;28;45397;-67
2022/04/21 12:10:23;;;;;;;;;6.75;5.75;;;;;;;;5058289;28;45515;-69
2022/04/21 12:12:48;;;;;;;;;7.00;6.00;;;;;;;;5059952;28;45422;-66
2022/04/21 12:15:14;;;;;;;;;7.00;6.00;;;;;;;;5059918;28;45455;-66
2022/04/21 12:17:39;;;;;;;;;8.00;8.00;;;;;;;;5059702;28;45567;-69
2022/04/21 12:20:07;;;;;;;;;5.33;5.00;;;;;;;;5059831;28;45279;-69
2022/04/21 12:22:32;;;;;;;;;6.67;5.33;;;;;;;;5060149;28;45337;-69
2022/04/21 12:24:58;;;;;;;;;5.00;5.00;;;;;;;;5059573;28;45317;-68
2022/04/21 12:27:30;;;;;;;;;6.67;5.33;;;;;;;;5059798;28;45261;-67
2022/04/21 12:29:59;;;;;;;;;3.67;3.67;;;;;;;;5059676;28;45453;-66
2022/04/21 12:32:28;;;;;;;;;7.00;6.33;;;;;;;;5059843;28;45269;-68
2022/04/21 12:34:55;;;;;;;;;8.33;7.00;;;;;;;;5059366;28;46232;-69
2022/04/21 12:37:37;;;;;;;;;15.50;14.00;;;;;;;;5059528;28;45355;-66
2022/04/21 12:40:04;;;;;;;;;24.75;19.50;;;;;;;;5059489;28;46031;-66
2022/04/21 12:42:30;;;;;;;;;16.75;13.25;;;;;;;;5059158;28;45394;-66
2022/04/21 12:44:55;;;;;;;;;23.50;20.50;;;;;;;;5058994;28;46104;-67
2022/04/21 12:47:21;;;;;;;;;8.50;8.50;;;;;;;;5059228;28;45259;-69
2022/04/21 12:49:53;;;;;;;;;14.25;12.25;;;;;;;;5059527;28;45464;-67
2022/04/21 12:52:28;;;;;;;;;10.00;7.67;;;;;;;;5059261;28;45483;-67
2022/04/21 12:54:53;;;;;;;;;19.25;18.75;;;;;;;;5058715;28;45395;-67
2022/04/21 12:57:19;;;;;;;;;12.00;10.25;;;;;;;;5058885;28;45405;-69
2022/04/21 12:59:47;;;;;;;;;13.50;13.00;;;;;;;;5059175;28;45921;-69
2022/04/21 13:02:13;;;;;;;;;19.75;17.75;;;;;;;;5059348;28;45185;-67
2022/04/21 13:04:39;;;;;;;;;31.00;29.00;;;;;;;;5058714;28;46210;-66
2022/04/21 13:07:04;;;;;;;;;20.00;17.25;;;;;;;;5058781;28;45459;-66
2022/04/21 13:09:31;;;;;;;;;16.75;16.75;;;;;;;;5058722;28;45311;-68
2022/04/21 13:11:57;;;;;;;;;18.00;16.00;;;;;;;;5058886;28;45399;-66
2022/04/21 13:14:22;;;;;;;;;11.00;9.75;;;;;;;;5058348;28;45586;-67
2022/04/21 13:16:47;;;;;;;;;16.00;14.00;;;;;;;;5058843;28;45316;-67
2022/04/21 13:19:13;;;;;;;;;10.50;10.50;;;;;;;;5058673;28;45421;-67
2022/04/21 13:21:55;;;;;;;;;10.50;8.75;;;;;;;;5058713;28;45522;-66
2022/04/21 13:24:20;;;;;;;;;16.75;14.75;;;;;;;;5058535;28;45699;-67
2022/04/21 13:26:46;;;;;;;;;20.00;16.25;;;;;;;;5058809;28;45525;-67
2022/04/21 13:29:11;;;;;;;;;21.75;17.50;;;;;;;;5057153;28;45405;-67
2022/04/21 13:34:20;;;;;;;;;19.25;17.00;;;;;;;;5058531;28;45782;-67
2022/04/21 13:36:46;;;;;;;;;38.25;32.75;;;;;;;;5058687;28;45204;-68
2022/04/21 13:39:11;;;;;;;;;18.00;16.25;;;;;;;;5058273;28;45576;-67
2022/04/21 13:41:37;;;;;;;;;15.75;15.00;;;;;;;;5058650;28;45322;-69
2022/04/21 13:44:03;;;;;;;;;17.00;17.00;;;;;;;;5058290;28;45488;-67
2022/04/21 13:46:31;;;;;;;;;19.25;17.25;;;;;;;;5056554;28;45541;-68
2022/04/21 13:48:56;;;;;;;;;12.75;10.75;;;;;;;;5058250;28;45450;-68
2022/04/21 13:51:22;;;;;;;;;7.00;7.00;;;;;;;;5058208;28;45302;-67
2022/04/21 13:53:47;;;;;;;;;19.00;17.00;;;;;;;;5057380;28;46573;-68
2022/04/21 13:56:13;;;;;;;;;13.75;12.25;;;;;;;;5056136;28;45352;-67
2022/04/21 13:58:38;;;;;;;;;16.00;15.25;;;;;;;;5056753;28;45575;-67
2022/04/21 14:01:03;;;;;;;;;14.75;12.25;;;;;;;;5058399;28;45303;-69
2022/04/21 14:03:32;;;;;;;;;26.25;23.00;;;;;;;;5057634;28;46234;-67
2022/04/21 14:05:58;;;;;;;;;8.00;7.67;;;;;;;;5057900;28;45248;-67
2022/04/21 14:08:23;;;;;;;;;1.33;0.00;;;;;;;;5057685;28;45270;-67
2022/04/21 14:10:49;;;;;;;;;6.67;6.67;;;;;;;;5058099;28;45425;-67
2022/04/21 14:13:14;;;;;;;;;17.25;16.75;;;;;;;;5057383;28;46074;-68
2022/04/21 14:15:39;;;;;;;;;84.00;72.67;;;;;;;;5057578;28;45429;-67
2022/04/21 14:18:05;;;;;;;;;30.00;29.00;;;;;;;;5057226;28;45347;-67
2022/04/21 14:20:30;;;;;;;;;32.25;27.25;;;;;;;;5057427;28;45573;-69
2022/04/21 14:22:56;;;;;;;;;18.50;16.00;;;;;;;;5057131;28;46212;-67
2022/04/21 14:25:21;;;;;;;;;12.25;10.50;;;;;;;;5058037;28;45406;-69
2022/04/21 14:27:47;;;;;;;;;6.00;6.00;;;;;;;;5057742;28;45338;-69
2022/04/21 14:30:12;;;;;;;;;10.00;9.67;;;;;;;;5057505;28;45551;-66
2022/04/21 14:32:39;;;;;;;;;5.33;5.33;;;;;;;;5057054;28;46269;-66
2022/04/21 14:35:04;;;;;;;;;9.00;8.00;;;;;;;;5057248;28;45363;-66
2022/04/21 14:45:43;;;;;;;;;11.33;9.67;;;;;;;;5056857;28;45464;-67
2022/04/21 14:48:08;;;;;;;;;20.00;18.00;;;;;;;;5057066;28;45536;-69
2022/04/21 14:50:34;;;;;;;;;20.75;18.75;;;;;;;;5057192;28;45211;-68
2022/04/21 14:52:59;;;;;;;;;17.00;15.00;;;;;;;;5056657;28;46181;-69
2022/04/21 14:55:24;;;;;;;;;15.00;14.25;;;;;;;;5056842;28;45319;-67
2022/04/21 14:57:50;;;;;;;;;14.75;14.50;;;;;;;;5056617;28;45781;-66
2022/04/21 15:00:16;;;;;;;;;16.00;16.00;;;;;;;;5056580;28;45488;-67
2022/04/21 15:02:41;;;;;;;;;21.50;20.75;;;;;;;;5056502;28;46020;-66
2022/04/21 15:05:07;;;;;;;;;28.50;24.25;;;;;;;;5056164;28;45310;-68
2022/04/21 15:07:32;;;;;;;;;29.75;27.75;;;;;;;;5056751;28;45231;-67
2022/04/21 15:09:58;;;;;;;;;19.00;18.00;;;;;;;;5057126;28;45466;-69
2022/04/21 15:12:24;;;;;;;;;26.00;23.75;;;;;;;;5057144;28;45745;-68
2022/04/21 15:14:50;;;;;;;;;21.50;21.50;;;;;;;;5056706;28;45364;-66
2022/04/21 15:17:16;;;;;;;;;11.50;10.25;;;;;;;;5057081;28;45404;-67
2022/04/21 15:19:44;;;;;;;;;15.00;12.75;;;;;;;;5056668;28;45580;-67
2022/04/21 15:22:09;;;;;;;;;18.75;17.25;;;;;;;;5056510;28;46076;-67
2022/04/21 15:24:34;;;;;;;;;25.75;25.25;;;;;;;;5055159;28;45361;-69
2022/04/21 15:27:00;;;;;;;;;18.50;17.00;;;;;;;;5057077;28;45371;-66